sensor_id;sensor_type;location;lat;lon;timestamp;P1;durP1;ratioP1;P2;durP2;ratioP2
41329;SDS011;34792;52.154;10.374;2023-01-05T00:00:51;2.42;;;1.10;;
41329;SDS011;34792;52.154;10.374;2023-01-05T00:03:17;3.15;;;1.20;;
41329;SDS011;34792;52.154;10.374;2023-01-05T00:05:42;4.78;;;1.20;;
41329;SDS011;34792;52.154;10.374;2023-01-05T00:08:08;2.00;;;0.82;;
41329;SDS011;34792;52.154;10.374;2023-01-05T00:10:35;6.38;;;2.50;;
41329;SDS011;34792;52.154;10.374;2023-01-05T00:13:19;2.25;;;1.20;;
41329;SDS011;34792;52.154;10.374;2023-01-05T00:16:04;5.53;;;1.65;;
41329;SDS011;34792;52.154;10.374;2023-01-05T00:18:55;4.78;;;1.40;;
41329;SDS011;34792;52.154;10.374;2023-01-05T00:21:39;2.72;;;1.13;;
41329;SDS011;34792;52.154;10.374;2023-01-05T00:24:23;5.60;;;0.68;;
41329;SDS011;34792;52.154;10.374;2023-01-05T00:26:49;3.05;;;1.00;;
41329;SDS011;34792;52.154;10.374;2023-01-05T00:29:14;1.67;;;0.70;;
41329;SDS011;34792;52.154;10.374;2023-01-05T00:31:40;2.42;;;1.08;;
41329;SDS011;34792;52.154;10.374;2023-01-05T00:34:05;2.72;;;0.95;;
41329;SDS011;34792;52.154;10.374;2023-01-05T00:36:31;3.95;;;1.35;;
41329;SDS011;34792;52.154;10.374;2023-01-05T00:38:56;2.25;;;0.80;;
41329;SDS011;34792;52.154;10.374;2023-01-05T00:41:22;2.10;;;0.73;;
41329;SDS011;34792;52.154;10.374;2023-01-05T00:43:47;2.95;;;1.40;;
41329;SDS011;34792;52.154;10.374;2023-01-05T00:46:13;1.02;;;0.65;;
41329;SDS011;34792;52.154;10.374;2023-01-05T00:48:38;1.42;;;0.77;;
41329;SDS011;34792;52.154;10.374;2023-01-05T00:51:04;4.13;;;0.70;;
41329;SDS011;34792;52.154;10.374;2023-01-05T00:53:30;3.80;;;1.38;;
41329;SDS011;34792;52.154;10.374;2023-01-05T00:55:56;3.00;;;0.80;;
41329;SDS011;34792;52.154;10.374;2023-01-05T00:58:22;1.25;;;0.73;;
41329;SDS011;34792;52.154;10.374;2023-01-05T01:00:47;4.50;;;1.35;;
41329;SDS011;34792;52.154;10.374;2023-01-05T01:03:13;1.90;;;0.70;;
41329;SDS011;34792;52.154;10.374;2023-01-05T01:05:38;2.85;;;1.13;;
41329;SDS011;34792;52.154;10.374;2023-01-05T01:08:04;2.33;;;0.65;;
41329;SDS011;34792;52.154;10.374;2023-01-05T01:10:29;1.67;;;0.75;;
41329;SDS011;34792;52.154;10.374;2023-01-05T01:12:55;2.05;;;0.82;;
41329;SDS011;34792;52.154;10.374;2023-01-05T01:15:20;2.80;;;0.60;;
41329;SDS011;34792;52.154;10.374;2023-01-05T01:17:46;1.52;;;0.77;;
41329;SDS011;34792;52.154;10.374;2023-01-05T01:20:12;1.05;;;0.45;;
41329;SDS011;34792;52.154;10.374;2023-01-05T01:22:37;3.13;;;1.05;;
41329;SDS011;34792;52.154;10.374;2023-01-05T01:25:03;6.47;;;1.58;;
41329;SDS011;34792;52.154;10.374;2023-01-05T01:27:29;5.15;;;0.75;;
41329;SDS011;34792;52.154;10.374;2023-01-05T01:29:56;2.50;;;0.75;;
41329;SDS011;34792;52.154;10.374;2023-01-05T01:32:21;1.83;;;0.73;;
41329;SDS011;34792;52.154;10.374;2023-01-05T01:34:48;2.70;;;1.33;;
41329;SDS011;34792;52.154;10.374;2023-01-05T01:37:14;6.13;;;1.20;;
41329;SDS011;34792;52.154;10.374;2023-01-05T01:39:40;2.90;;;1.20;;
41329;SDS011;34792;52.154;10.374;2023-01-05T01:42:09;5.38;;;0.88;;
41329;SDS011;34792;52.154;10.374;2023-01-05T01:50:20;1.95;;;0.82;;
41329;SDS011;34792;52.154;10.374;2023-01-05T01:52:49;1.60;;;1.10;;
41329;SDS011;34792;52.154;10.374;2023-01-05T01:55:15;2.10;;;0.75;;
41329;SDS011;34792;52.154;10.374;2023-01-05T01:57:41;2.22;;;0.80;;
41329;SDS011;34792;52.154;10.374;2023-01-05T02:00:08;1.10;;;0.43;;
41329;SDS011;34792;52.154;10.374;2023-01-05T02:02:35;1.42;;;0.85;;
41329;SDS011;34792;52.154;10.374;2023-01-05T02:05:02;2.20;;;0.82;;
41329;SDS011;34792;52.154;10.374;2023-01-05T02:07:31;3.00;;;1.15;;
41329;SDS011;34792;52.154;10.374;2023-01-05T02:09:59;1.90;;;1.15;;
41329;SDS011;34792;52.154;10.374;2023-01-05T02:12:29;1.40;;;0.50;;
41329;SDS011;34792;52.154;10.374;2023-01-05T02:28:22;2.38;;;0.80;;
41329;SDS011;34792;52.154;10.374;2023-01-05T02:31:17;1.95;;;0.77;;
41329;SDS011;34792;52.154;10.374;2023-01-05T02:33:54;3.28;;;1.15;;
41329;SDS011;34792;52.154;10.374;2023-01-05T02:36:35;1.58;;;0.40;;
41329;SDS011;34792;52.154;10.374;2023-01-05T02:39:18;2.78;;;1.05;;
41329;SDS011;34792;52.154;10.374;2023-01-05T02:41:51;1.55;;;0.75;;
41329;SDS011;34792;52.154;10.374;2023-01-05T02:44:29;1.60;;;0.73;;
41329;SDS011;34792;52.154;10.374;2023-01-05T02:47:00;1.35;;;0.65;;
41329;SDS011;34792;52.154;10.374;2023-01-05T02:49:45;2.00;;;1.02;;
41329;SDS011;34792;52.154;10.374;2023-01-05T02:52:10;1.65;;;1.00;;
41329;SDS011;34792;52.154;10.374;2023-01-05T02:54:44;1.85;;;0.85;;
41329;SDS011;34792;52.154;10.374;2023-01-05T02:57:19;2.25;;;0.65;;
41329;SDS011;34792;52.154;10.374;2023-01-05T03:00:07;1.52;;;0.90;;
41329;SDS011;34792;52.154;10.374;2023-01-05T03:02:34;3.17;;;1.40;;
41329;SDS011;34792;52.154;10.374;2023-01-05T03:05:01;2.05;;;0.68;;
41329;SDS011;34792;52.154;10.374;2023-01-05T03:07:31;1.17;;;0.73;;
41329;SDS011;34792;52.154;10.374;2023-01-05T03:09:59;1.50;;;0.60;;
41329;SDS011;34792;52.154;10.374;2023-01-05T03:12:48;2.70;;;0.88;;
41329;SDS011;34792;52.154;10.374;2023-01-05T03:15:34;1.30;;;0.70;;
41329;SDS011;34792;52.154;10.374;2023-01-05T03:18:06;2.25;;;0.60;;
41329;SDS011;34792;52.154;10.374;2023-01-05T03:20:33;1.15;;;0.68;;
41329;SDS011;34792;52.154;10.374;2023-01-05T03:23:01;1.63;;;0.57;;
41329;SDS011;34792;52.154;10.374;2023-01-05T03:25:46;1.42;;;0.77;;
41329;SDS011;34792;52.154;10.374;2023-01-05T03:28:34;2.08;;;1.10;;
41329;SDS011;34792;52.154;10.374;2023-01-05T03:31:32;2.20;;;0.73;;
41329;SDS011;34792;52.154;10.374;2023-01-05T03:37:25;2.15;;;0.65;;
41329;SDS011;34792;52.154;10.374;2023-01-05T03:39:54;1.88;;;1.10;;
41329;SDS011;34792;52.154;10.374;2023-01-05T03:42:20;0.90;;;0.40;;
41329;SDS011;34792;52.154;10.374;2023-01-05T03:44:47;1.58;;;0.93;;
41329;SDS011;34792;52.154;10.374;2023-01-05T03:47:13;1.00;;;0.52;;
41329;SDS011;34792;52.154;10.374;2023-01-05T03:49:39;2.67;;;0.85;;
41329;SDS011;34792;52.154;10.374;2023-01-05T03:52:04;2.30;;;0.63;;
41329;SDS011;34792;52.154;10.374;2023-01-05T03:54:30;1.23;;;0.70;;
41329;SDS011;34792;52.154;10.374;2023-01-05T03:56:55;2.05;;;0.50;;
41329;SDS011;34792;52.154;10.374;2023-01-05T03:59:21;1.33;;;0.90;;
41329;SDS011;34792;52.154;10.374;2023-01-05T04:01:47;1.90;;;1.13;;
41329;SDS011;34792;52.154;10.374;2023-01-05T04:04:12;2.40;;;0.65;;
41329;SDS011;34792;52.154;10.374;2023-01-05T04:06:38;1.50;;;0.77;;
41329;SDS011;34792;52.154;10.374;2023-01-05T04:09:03;2.42;;;1.00;;
41329;SDS011;34792;52.154;10.374;2023-01-05T04:11:29;1.35;;;0.63;;
41329;SDS011;34792;52.154;10.374;2023-01-05T04:13:54;1.25;;;0.68;;
41329;SDS011;34792;52.154;10.374;2023-01-05T04:16:20;1.60;;;0.60;;
41329;SDS011;34792;52.154;10.374;2023-01-05T04:18:45;1.48;;;0.70;;
41329;SDS011;34792;52.154;10.374;2023-01-05T04:21:11;1.27;;;0.47;;
41329;SDS011;34792;52.154;10.374;2023-01-05T04:23:36;1.85;;;0.88;;
41329;SDS011;34792;52.154;10.374;2023-01-05T04:26:02;2.28;;;1.35;;
41329;SDS011;34792;52.154;10.374;2023-01-05T04:28:28;3.38;;;0.80;;
41329;SDS011;34792;52.154;10.374;2023-01-05T04:30:54;3.05;;;0.95;;
41329;SDS011;34792;52.154;10.374;2023-01-05T04:33:20;1.52;;;0.80;;
41329;SDS011;34792;52.154;10.374;2023-01-05T04:35:46;1.27;;;0.40;;
41329;SDS011;34792;52.154;10.374;2023-01-05T04:38:12;1.00;;;0.65;;
41329;SDS011;34792;52.154;10.374;2023-01-05T04:40:38;1.25;;;0.52;;
41329;SDS011;34792;52.154;10.374;2023-01-05T04:43:04;0.70;;;0.55;;
41329;SDS011;34792;52.154;10.374;2023-01-05T04:45:31;2.33;;;0.90;;
41329;SDS011;34792;52.154;10.374;2023-01-05T04:47:57;1.77;;;0.95;;
41329;SDS011;34792;52.154;10.374;2023-01-05T04:50:23;1.30;;;0.63;;
41329;SDS011;34792;52.154;10.374;2023-01-05T04:52:48;1.77;;;0.85;;
41329;SDS011;34792;52.154;10.374;2023-01-05T04:55:14;0.80;;;0.43;;
41329;SDS011;34792;52.154;10.374;2023-01-05T04:57:39;2.33;;;0.95;;
41329;SDS011;34792;52.154;10.374;2023-01-05T05:00:05;1.10;;;0.77;;
41329;SDS011;34792;52.154;10.374;2023-01-05T05:02:32;2.08;;;0.77;;
41329;SDS011;34792;52.154;10.374;2023-01-05T05:04:58;1.83;;;0.88;;
41329;SDS011;34792;52.154;10.374;2023-01-05T05:07:23;1.10;;;0.55;;
41329;SDS011;34792;52.154;10.374;2023-01-05T05:09:49;1.35;;;0.50;;
41329;SDS011;34792;52.154;10.374;2023-01-05T05:12:14;1.15;;;0.73;;
41329;SDS011;34792;52.154;10.374;2023-01-05T05:14:44;0.90;;;0.40;;
41329;SDS011;34792;52.154;10.374;2023-01-05T05:17:13;2.30;;;0.60;;
41329;SDS011;34792;52.154;10.374;2023-01-05T05:19:39;1.15;;;0.70;;
41329;SDS011;34792;52.154;10.374;2023-01-05T05:22:05;1.85;;;0.70;;
41329;SDS011;34792;52.154;10.374;2023-01-05T05:24:30;2.28;;;0.70;;
41329;SDS011;34792;52.154;10.374;2023-01-05T05:26:56;1.67;;;0.93;;
41329;SDS011;34792;52.154;10.374;2023-01-05T05:29:22;2.22;;;0.85;;
41329;SDS011;34792;52.154;10.374;2023-01-05T05:31:48;1.25;;;0.70;;
41329;SDS011;34792;52.154;10.374;2023-01-05T05:34:14;1.45;;;0.55;;
41329;SDS011;34792;52.154;10.374;2023-01-05T05:36:39;2.30;;;1.20;;
41329;SDS011;34792;52.154;10.374;2023-01-05T05:39:05;16.27;;;3.92;;
41329;SDS011;34792;52.154;10.374;2023-01-05T05:41:30;10.60;;;3.38;;
41329;SDS011;34792;52.154;10.374;2023-01-05T05:43:56;7.78;;;2.67;;
41329;SDS011;34792;52.154;10.374;2023-01-05T05:46:26;5.97;;;3.47;;
41329;SDS011;34792;52.154;10.374;2023-01-05T05:48:53;7.57;;;2.42;;
41329;SDS011;34792;52.154;10.374;2023-01-05T05:51:20;9.70;;;3.45;;
41329;SDS011;34792;52.154;10.374;2023-01-05T05:53:46;6.28;;;3.17;;
41329;SDS011;34792;52.154;10.374;2023-01-05T05:56:11;10.45;;;3.47;;
41329;SDS011;34792;52.154;10.374;2023-01-05T05:58:37;6.63;;;2.58;;
41329;SDS011;34792;52.154;10.374;2023-01-05T06:01:02;4.60;;;2.38;;
41329;SDS011;34792;52.154;10.374;2023-01-05T06:03:28;5.15;;;2.28;;
41329;SDS011;34792;52.154;10.374;2023-01-05T06:05:53;7.93;;;2.17;;
41329;SDS011;34792;52.154;10.374;2023-01-05T06:08:19;3.92;;;1.88;;
41329;SDS011;34792;52.154;10.374;2023-01-05T06:10:46;7.68;;;2.78;;
41329;SDS011;34792;52.154;10.374;2023-01-05T06:13:12;10.48;;;3.28;;
41329;SDS011;34792;52.154;10.374;2023-01-05T06:15:38;7.28;;;2.05;;
41329;SDS011;34792;52.154;10.374;2023-01-05T06:18:03;6.82;;;2.55;;
41329;SDS011;34792;52.154;10.374;2023-01-05T06:20:29;10.18;;;2.88;;
41329;SDS011;34792;52.154;10.374;2023-01-05T06:22:55;8.10;;;2.50;;
41329;SDS011;34792;52.154;10.374;2023-01-05T06:25:20;6.22;;;1.85;;
41329;SDS011;34792;52.154;10.374;2023-01-05T06:27:46;6.53;;;1.80;;
41329;SDS011;34792;52.154;10.374;2023-01-05T06:30:11;9.88;;;2.60;;
41329;SDS011;34792;52.154;10.374;2023-01-05T06:32:37;7.47;;;2.35;;
41329;SDS011;34792;52.154;10.374;2023-01-05T06:35:03;9.80;;;3.03;;
41329;SDS011;34792;52.154;10.374;2023-01-05T06:37:28;6.07;;;2.25;;
41329;SDS011;34792;52.154;10.374;2023-01-05T06:39:54;5.63;;;2.38;;
41329;SDS011;34792;52.154;10.374;2023-01-05T06:42:20;6.57;;;2.28;;
41329;SDS011;34792;52.154;10.374;2023-01-05T06:44:45;7.43;;;1.88;;
41329;SDS011;34792;52.154;10.374;2023-01-05T06:47:11;3.17;;;1.45;;
41329;SDS011;34792;52.154;10.374;2023-01-05T06:49:38;5.55;;;2.35;;
41329;SDS011;34792;52.154;10.374;2023-01-05T06:52:03;4.40;;;1.70;;
41329;SDS011;34792;52.154;10.374;2023-01-05T06:54:29;6.07;;;2.58;;
41329;SDS011;34792;52.154;10.374;2023-01-05T06:56:54;2.75;;;1.52;;
41329;SDS011;34792;52.154;10.374;2023-01-05T06:59:20;4.57;;;2.00;;
41329;SDS011;34792;52.154;10.374;2023-01-05T07:01:45;3.72;;;1.95;;
41329;SDS011;34792;52.154;10.374;2023-01-05T07:04:11;4.18;;;1.70;;
41329;SDS011;34792;52.154;10.374;2023-01-05T07:06:37;5.75;;;2.08;;
41329;SDS011;34792;52.154;10.374;2023-01-05T07:09:02;5.03;;;1.70;;
41329;SDS011;34792;52.154;10.374;2023-01-05T07:11:28;4.72;;;1.58;;
41329;SDS011;34792;52.154;10.374;2023-01-05T07:13:53;4.20;;;1.60;;
41329;SDS011;34792;52.154;10.374;2023-01-05T07:16:19;3.85;;;1.88;;
41329;SDS011;34792;52.154;10.374;2023-01-05T07:18:44;3.22;;;1.48;;
41329;SDS011;34792;52.154;10.374;2023-01-05T07:21:10;7.32;;;1.88;;
41329;SDS011;34792;52.154;10.374;2023-01-05T07:23:36;3.95;;;1.63;;
41329;SDS011;34792;52.154;10.374;2023-01-05T07:26:02;6.57;;;2.80;;
41329;SDS011;34792;52.154;10.374;2023-01-05T07:28:28;4.82;;;1.75;;
41329;SDS011;34792;52.154;10.374;2023-01-05T07:30:54;4.88;;;2.30;;
41329;SDS011;34792;52.154;10.374;2023-01-05T07:33:20;2.67;;;1.27;;
41329;SDS011;34792;52.154;10.374;2023-01-05T07:35:45;2.88;;;1.52;;
41329;SDS011;34792;52.154;10.374;2023-01-05T07:38:11;3.35;;;1.63;;
41329;SDS011;34792;52.154;10.374;2023-01-05T07:40:36;3.92;;;2.03;;
41329;SDS011;34792;52.154;10.374;2023-01-05T07:43:02;4.63;;;2.40;;
41329;SDS011;34792;52.154;10.374;2023-01-05T07:45:28;4.78;;;1.98;;
41329;SDS011;34792;52.154;10.374;2023-01-05T07:47:54;4.00;;;1.58;;
41329;SDS011;34792;52.154;10.374;2023-01-05T07:50:19;1.92;;;0.90;;
41329;SDS011;34792;52.154;10.374;2023-01-05T07:52:45;6.32;;;1.90;;
41329;SDS011;34792;52.154;10.374;2023-01-05T07:55:10;4.32;;;2.30;;
41329;SDS011;34792;52.154;10.374;2023-01-05T07:57:36;4.43;;;1.88;;
41329;SDS011;34792;52.154;10.374;2023-01-05T08:00:02;2.38;;;1.48;;
41329;SDS011;34792;52.154;10.374;2023-01-05T08:02:29;5.28;;;1.73;;
41329;SDS011;34792;52.154;10.374;2023-01-05T08:04:54;3.25;;;1.75;;
41329;SDS011;34792;52.154;10.374;2023-01-05T08:07:20;7.55;;;1.85;;
41329;SDS011;34792;52.154;10.374;2023-01-05T08:09:45;2.42;;;1.42;;
41329;SDS011;34792;52.154;10.374;2023-01-05T08:12:30;3.10;;;1.30;;
41329;SDS011;34792;52.154;10.374;2023-01-05T08:14:56;1.55;;;0.90;;
41329;SDS011;34792;52.154;10.374;2023-01-05T08:17:21;4.78;;;1.88;;
41329;SDS011;34792;52.154;10.374;2023-01-05T08:19:47;3.80;;;1.75;;
41329;SDS011;34792;52.154;10.374;2023-01-05T08:22:12;3.30;;;1.27;;
41329;SDS011;34792;52.154;10.374;2023-01-05T08:24:38;6.45;;;1.88;;
41329;SDS011;34792;52.154;10.374;2023-01-05T08:27:03;2.60;;;1.17;;
41329;SDS011;34792;52.154;10.374;2023-01-05T08:29:29;1.90;;;0.90;;
41329;SDS011;34792;52.154;10.374;2023-01-05T08:31:55;3.22;;;1.17;;
41329;SDS011;34792;52.154;10.374;2023-01-05T08:34:20;5.00;;;1.85;;
41329;SDS011;34792;52.154;10.374;2023-01-05T08:36:46;2.75;;;1.27;;
41329;SDS011;34792;52.154;10.374;2023-01-05T08:39:11;4.78;;;2.05;;
41329;SDS011;34792;52.154;10.374;2023-01-05T08:41:38;2.83;;;0.85;;
41329;SDS011;34792;52.154;10.374;2023-01-05T08:44:05;2.78;;;1.35;;
41329;SDS011;34792;52.154;10.374;2023-01-05T08:46:33;3.33;;;2.15;;
41329;SDS011;34792;52.154;10.374;2023-01-05T08:49:00;4.72;;;1.25;;
41329;SDS011;34792;52.154;10.374;2023-01-05T08:51:27;3.95;;;1.40;;
41329;SDS011;34792;52.154;10.374;2023-01-05T08:53:53;3.72;;;1.45;;
41329;SDS011;34792;52.154;10.374;2023-01-05T08:56:20;3.92;;;1.00;;
41329;SDS011;34792;52.154;10.374;2023-01-05T08:58:46;3.45;;;1.65;;
41329;SDS011;34792;52.154;10.374;2023-01-05T09:01:13;3.72;;;1.27;;
41329;SDS011;34792;52.154;10.374;2023-01-05T09:03:39;3.22;;;1.30;;
41329;SDS011;34792;52.154;10.374;2023-01-05T09:06:06;2.45;;;1.45;;
41329;SDS011;34792;52.154;10.374;2023-01-05T09:08:33;2.75;;;0.90;;
41329;SDS011;34792;52.154;10.374;2023-01-05T09:13:38;1.75;;;1.00;;
41329;SDS011;34792;52.154;10.374;2023-01-05T09:16:08;3.85;;;1.45;;
41329;SDS011;34792;52.154;10.374;2023-01-05T09:18:36;1.83;;;1.33;;
41329;SDS011;34792;52.154;10.374;2023-01-05T09:21:03;2.13;;;1.00;;
41329;SDS011;34792;52.154;10.374;2023-01-05T09:23:30;6.00;;;1.42;;
41329;SDS011;34792;52.154;10.374;2023-01-05T09:25:55;5.75;;;1.17;;
41329;SDS011;34792;52.154;10.374;2023-01-05T09:28:21;2.00;;;0.93;;
41329;SDS011;34792;52.154;10.374;2023-01-05T09:30:47;1.13;;;0.45;;
41329;SDS011;34792;52.154;10.374;2023-01-05T09:33:12;1.58;;;0.88;;
41329;SDS011;34792;52.154;10.374;2023-01-05T09:35:38;7.18;;;1.25;;
41329;SDS011;34792;52.154;10.374;2023-01-05T09:38:03;2.92;;;1.25;;
41329;SDS011;34792;52.154;10.374;2023-01-05T09:40:29;2.60;;;0.90;;
41329;SDS011;34792;52.154;10.374;2023-01-05T09:43:01;1.42;;;0.68;;
41329;SDS011;34792;52.154;10.374;2023-01-05T09:45:27;3.90;;;1.27;;
41329;SDS011;34792;52.154;10.374;2023-01-05T09:47:54;1.50;;;0.43;;
41329;SDS011;34792;52.154;10.374;2023-01-05T09:50:23;1.42;;;0.63;;
41329;SDS011;34792;52.154;10.374;2023-01-05T09:52:52;1.98;;;0.98;;
41329;SDS011;34792;52.154;10.374;2023-01-05T09:55:20;2.25;;;0.80;;
41329;SDS011;34792;52.154;10.374;2023-01-05T09:57:55;1.70;;;0.77;;
41329;SDS011;34792;52.154;10.374;2023-01-05T10:00:26;1.83;;;1.05;;
41329;SDS011;34792;52.154;10.374;2023-01-05T10:02:57;2.30;;;1.20;;
41329;SDS011;34792;52.154;10.374;2023-01-05T10:05:24;2.35;;;0.63;;
41329;SDS011;34792;52.154;10.374;2023-01-05T10:07:52;2.15;;;1.02;;
41329;SDS011;34792;52.154;10.374;2023-01-05T10:13:32;1.33;;;0.65;;
41329;SDS011;34792;52.154;10.374;2023-01-05T10:16:00;1.70;;;0.93;;
41329;SDS011;34792;52.154;10.374;2023-01-05T10:18:26;1.60;;;0.73;;
41329;SDS011;34792;52.154;10.374;2023-01-05T10:26:27;2.38;;;0.95;;
41329;SDS011;34792;52.154;10.374;2023-01-05T10:29:17;2.25;;;1.15;;
41329;SDS011;34792;52.154;10.374;2023-01-05T10:32:06;2.58;;;1.38;;
41329;SDS011;34792;52.154;10.374;2023-01-05T10:40:17;1.73;;;0.70;;
41329;SDS011;34792;52.154;10.374;2023-01-05T10:45:20;2.05;;;0.75;;
41329;SDS011;34792;52.154;10.374;2023-01-05T10:47:46;2.78;;;0.80;;
41329;SDS011;34792;52.154;10.374;2023-01-05T10:53:14;2.10;;;0.70;;
41329;SDS011;34792;52.154;10.374;2023-01-05T10:56:02;1.63;;;0.88;;
41329;SDS011;34792;52.154;10.374;2023-01-05T10:58:35;3.10;;;0.90;;
41329;SDS011;34792;52.154;10.374;2023-01-05T11:03:38;1.27;;;0.70;;
41329;SDS011;34792;52.154;10.374;2023-01-05T11:06:06;0.93;;;0.55;;
41329;SDS011;34792;52.154;10.374;2023-01-05T11:08:33;1.58;;;0.57;;
41329;SDS011;34792;52.154;10.374;2023-01-05T11:11:00;2.20;;;0.57;;
41329;SDS011;34792;52.154;10.374;2023-01-05T11:13:34;1.45;;;0.70;;
41329;SDS011;34792;52.154;10.374;2023-01-05T11:16:11;1.35;;;0.68;;
41329;SDS011;34792;52.154;10.374;2023-01-05T11:18:49;1.52;;;0.70;;
41329;SDS011;34792;52.154;10.374;2023-01-05T11:24:01;2.00;;;0.85;;
41329;SDS011;34792;52.154;10.374;2023-01-05T11:34:21;1.95;;;1.02;;
41329;SDS011;34792;52.154;10.374;2023-01-05T11:36:55;1.33;;;0.82;;
41329;SDS011;34792;52.154;10.374;2023-01-05T11:39:38;4.30;;;1.40;;
41329;SDS011;34792;52.154;10.374;2023-01-05T11:42:10;2.00;;;0.60;;
41329;SDS011;34792;52.154;10.374;2023-01-05T11:44:52;1.95;;;1.08;;
41329;SDS011;34792;52.154;10.374;2023-01-05T11:52:58;0.82;;;0.50;;
41329;SDS011;34792;52.154;10.374;2023-01-05T11:58:09;1.63;;;0.73;;
41329;SDS011;34792;52.154;10.374;2023-01-05T12:06:07;2.08;;;0.75;;
41329;SDS011;34792;52.154;10.374;2023-01-05T12:08:54;1.17;;;0.50;;
41329;SDS011;34792;52.154;10.374;2023-01-05T12:11:26;1.88;;;0.40;;
41329;SDS011;34792;52.154;10.374;2023-01-05T12:16:50;2.95;;;1.27;;
41329;SDS011;34792;52.154;10.374;2023-01-05T12:22:32;2.38;;;0.63;;
41329;SDS011;34792;52.154;10.374;2023-01-05T12:36:29;0.80;;;0.35;;
41329;SDS011;34792;52.154;10.374;2023-01-05T12:44:25;2.10;;;0.73;;
41329;SDS011;34792;52.154;10.374;2023-01-05T12:49:57;3.00;;;1.00;;
41329;SDS011;34792;52.154;10.374;2023-01-05T12:55:01;1.10;;;0.57;;
41329;SDS011;34792;52.154;10.374;2023-01-05T12:57:42;1.60;;;1.08;;
41329;SDS011;34792;52.154;10.374;2023-01-05T13:02:40;1.13;;;0.60;;
41329;SDS011;34792;52.154;10.374;2023-01-05T13:13:30;0.93;;;0.65;;
41329;SDS011;34792;52.154;10.374;2023-01-05T13:16:07;4.22;;;1.05;;
41329;SDS011;34792;52.154;10.374;2023-01-05T13:18:51;0.68;;;0.32;;
41329;SDS011;34792;52.154;10.374;2023-01-05T13:21:20;1.75;;;0.77;;
41329;SDS011;34792;52.154;10.374;2023-01-05T13:23:54;1.17;;;0.68;;
41329;SDS011;34792;52.154;10.374;2023-01-05T13:26:22;2.13;;;0.93;;
41329;SDS011;34792;52.154;10.374;2023-01-05T13:28:49;1.55;;;0.93;;
41329;SDS011;34792;52.154;10.374;2023-01-05T13:39:29;2.70;;;0.80;;
41329;SDS011;34792;52.154;10.374;2023-01-05T13:53:15;1.33;;;0.55;;
41329;SDS011;34792;52.154;10.374;2023-01-05T14:00:54;1.33;;;0.50;;
41329;SDS011;34792;52.154;10.374;2023-01-05T14:03:26;0.55;;;0.30;;
41329;SDS011;34792;52.154;10.374;2023-01-05T14:05:54;1.38;;;0.75;;
41329;SDS011;34792;52.154;10.374;2023-01-05T14:08:25;1.27;;;0.77;;
41329;SDS011;34792;52.154;10.374;2023-01-05T14:27:03;1.40;;;0.70;;
41329;SDS011;34792;52.154;10.374;2023-01-05T14:37:52;1.73;;;0.77;;
41329;SDS011;34792;52.154;10.374;2023-01-05T14:40:38;1.05;;;0.35;;
41329;SDS011;34792;52.154;10.374;2023-01-05T14:48:42;1.08;;;0.60;;
41329;SDS011;34792;52.154;10.374;2023-01-05T14:51:22;0.90;;;0.30;;
41329;SDS011;34792;52.154;10.374;2023-01-05T14:53:51;1.60;;;0.73;;
41329;SDS011;34792;52.154;10.374;2023-01-05T14:56:22;0.40;;;0.20;;
41329;SDS011;34792;52.154;10.374;2023-01-05T15:01:37;2.20;;;0.45;;
41329;SDS011;34792;52.154;10.374;2023-01-05T15:04:31;0.80;;;0.50;;
41329;SDS011;34792;52.154;10.374;2023-01-05T15:12:22;1.05;;;0.40;;
41329;SDS011;34792;52.154;10.374;2023-01-05T15:20:51;0.88;;;0.47;;
41329;SDS011;34792;52.154;10.374;2023-01-05T15:34:13;1.13;;;0.60;;
41329;SDS011;34792;52.154;10.374;2023-01-05T15:36:50;0.93;;;0.60;;
41329;SDS011;34792;52.154;10.374;2023-01-05T15:40:03;1.15;;;0.40;;
41329;SDS011;34792;52.154;10.374;2023-01-05T15:42:10;0.93;;;0.50;;
41329;SDS011;34792;52.154;10.374;2023-01-05T15:44:41;1.27;;;0.75;;
41329;SDS011;34792;52.154;10.374;2023-01-05T15:47:10;1.33;;;0.50;;
41329;SDS011;34792;52.154;10.374;2023-01-05T15:49:36;1.17;;;0.73;;
41329;SDS011;34792;52.154;10.374;2023-01-05T15:52:02;1.33;;;0.35;;
41329;SDS011;34792;52.154;10.374;2023-01-05T15:54:29;1.00;;;0.52;;
41329;SDS011;34792;52.154;10.374;2023-01-05T15:56:57;2.30;;;0.60;;
41329;SDS011;34792;52.154;10.374;2023-01-05T15:59:28;1.20;;;0.60;;
41329;SDS011;34792;52.154;10.374;2023-01-05T16:01:54;1.23;;;0.70;;
41329;SDS011;34792;52.154;10.374;2023-01-05T16:04:20;0.55;;;0.25;;
41329;SDS011;34792;52.154;10.374;2023-01-05T16:06:46;1.88;;;0.70;;
41329;SDS011;34792;52.154;10.374;2023-01-05T16:09:36;1.15;;;0.63;;
41329;SDS011;34792;52.154;10.374;2023-01-05T16:12:14;1.05;;;0.50;;
41329;SDS011;34792;52.154;10.374;2023-01-05T16:14:56;1.10;;;0.40;;
41329;SDS011;34792;52.154;10.374;2023-01-05T16:17:26;0.65;;;0.38;;
41329;SDS011;34792;52.154;10.374;2023-01-05T16:22:22;1.95;;;0.82;;
41329;SDS011;34792;52.154;10.374;2023-01-05T16:27:30;1.55;;;0.80;;
41329;SDS011;34792;52.154;10.374;2023-01-05T16:30:11;1.40;;;0.50;;
41329;SDS011;34792;52.154;10.374;2023-01-05T16:32:59;2.25;;;0.60;;
41329;SDS011;34792;52.154;10.374;2023-01-05T16:38:14;0.63;;;0.35;;
41329;SDS011;34792;52.154;10.374;2023-01-05T16:45:55;1.35;;;0.68;;
41329;SDS011;34792;52.154;10.374;2023-01-05T16:51:07;0.98;;;0.70;;
41329;SDS011;34792;52.154;10.374;2023-01-05T16:53:34;0.98;;;0.40;;
41329;SDS011;34792;52.154;10.374;2023-01-05T16:56:19;0.90;;;0.73;;
41329;SDS011;34792;52.154;10.374;2023-01-05T16:58:47;0.73;;;0.45;;
41329;SDS011;34792;52.154;10.374;2023-01-05T17:03:43;1.02;;;0.60;;
41329;SDS011;34792;52.154;10.374;2023-01-05T17:06:16;0.63;;;0.30;;
41329;SDS011;34792;52.154;10.374;2023-01-05T17:09:02;0.52;;;0.30;;
41329;SDS011;34792;52.154;10.374;2023-01-05T17:11:34;0.85;;;0.20;;
41329;SDS011;34792;52.154;10.374;2023-01-05T17:14:00;1.10;;;0.55;;
41329;SDS011;34792;52.154;10.374;2023-01-05T17:16:26;2.13;;;0.57;;
41329;SDS011;34792;52.154;10.374;2023-01-05T17:18:52;1.27;;;0.50;;
41329;SDS011;34792;52.154;10.374;2023-01-05T17:21:22;1.42;;;0.68;;
41329;SDS011;34792;52.154;10.374;2023-01-05T17:23:50;0.90;;;0.55;;
41329;SDS011;34792;52.154;10.374;2023-01-05T17:26:36;0.65;;;0.25;;
41329;SDS011;34792;52.154;10.374;2023-01-05T17:29:03;0.73;;;0.50;;
41329;SDS011;34792;52.154;10.374;2023-01-05T17:31:30;1.17;;;0.57;;
41329;SDS011;34792;52.154;10.374;2023-01-05T17:33:56;0.95;;;0.45;;
41329;SDS011;34792;52.154;10.374;2023-01-05T17:36:24;0.98;;;0.45;;
41329;SDS011;34792;52.154;10.374;2023-01-05T17:38:51;1.05;;;0.52;;
41329;SDS011;34792;52.154;10.374;2023-01-05T17:41:16;0.90;;;0.55;;
41329;SDS011;34792;52.154;10.374;2023-01-05T17:43:42;1.13;;;0.70;;
41329;SDS011;34792;52.154;10.374;2023-01-05T17:46:09;2.47;;;0.57;;
41329;SDS011;34792;52.154;10.374;2023-01-05T17:48:40;1.17;;;0.35;;
41329;SDS011;34792;52.154;10.374;2023-01-05T17:51:06;0.85;;;0.40;;
41329;SDS011;34792;52.154;10.374;2023-01-05T17:53:31;0.47;;;0.20;;
41329;SDS011;34792;52.154;10.374;2023-01-05T17:55:57;1.00;;;0.32;;
41329;SDS011;34792;52.154;10.374;2023-01-05T17:58:22;0.90;;;0.32;;
41329;SDS011;34792;52.154;10.374;2023-01-05T18:00:48;0.90;;;0.45;;
41329;SDS011;34792;52.154;10.374;2023-01-05T18:03:14;1.20;;;0.38;;
41329;SDS011;34792;52.154;10.374;2023-01-05T18:05:44;0.68;;;0.40;;
41329;SDS011;34792;52.154;10.374;2023-01-05T18:08:10;1.15;;;0.77;;
41329;SDS011;34792;52.154;10.374;2023-01-05T18:10:36;0.82;;;0.40;;
41329;SDS011;34792;52.154;10.374;2023-01-05T18:13:02;1.27;;;0.43;;